Terminal Aerodrome Forecast
Issued by NWS

Home | Current Version | Previous Version | Text Only | Print | Product List | Glossary On
Versions: 1 2 3 4 5 6 7 8 9 10 11 12 13 14 15 16 17 18 19 20 21 22 23 24 25 26 27 28 29 30 31 32 33 34
763
FTAK31 PANC 221124
TAFASN
TAF
PASN 221124Z 2212/2312 13020G28KT P6SM VCFG SCT008 BKN018 OVC025
      TEMPO 2212/2216 6SM BR SCT008 OVC012
     FM222000 13023G33KT 4SM BR SCT007 OVC012
     FM230500 13024G34KT 1SM -RA BR OVC008=

USA.gov is the U.S. government's official web portal to all federal, state and local government web resources and services.